METAR Data
IDs: Format: Raw Decoded Include TAF

Data at: 2002 UTC 23 Oct 2021

LIML 231950Z AUTO VRB01KT 0150 0100NE R36/1200U BCFG NCD 11/11 Q1025